sensor_id;sensor_type;location;lat;lon;timestamp;temperature;humidity
3678;DHT22;1855;50.934;6.958;2023-02-12T00:01:14;7.70;99.90
3678;DHT22;1855;50.934;6.958;2023-02-12T00:03:43;7.60;99.90
3678;DHT22;1855;50.934;6.958;2023-02-12T00:06:10;7.60;99.90
3678;DHT22;1855;50.934;6.958;2023-02-12T00:08:37;7.60;99.90
3678;DHT22;1855;50.934;6.958;2023-02-12T00:11:09;7.60;99.90
3678;DHT22;1855;50.934;6.958;2023-02-12T00:13:37;7.60;99.90
3678;DHT22;1855;50.934;6.958;2023-02-12T00:16:05;7.60;99.90
3678;DHT22;1855;50.934;6.958;2023-02-12T00:18:32;7.60;99.90
3678;DHT22;1855;50.934;6.958;2023-02-12T00:21:00;7.60;99.90
3678;DHT22;1855;50.934;6.958;2023-02-12T00:23:27;7.60;99.90
3678;DHT22;1855;50.934;6.958;2023-02-12T00:25:54;7.60;99.90
3678;DHT22;1855;50.934;6.958;2023-02-12T00:28:21;7.60;99.90
3678;DHT22;1855;50.934;6.958;2023-02-12T00:30:48;7.60;99.90
3678;DHT22;1855;50.934;6.958;2023-02-12T00:33:15;7.60;99.90
3678;DHT22;1855;50.934;6.958;2023-02-12T00:35:41;7.60;99.90
3678;DHT22;1855;50.934;6.958;2023-02-12T00:38:09;7.50;99.90
3678;DHT22;1855;50.934;6.958;2023-02-12T00:40:36;7.50;99.90
3678;DHT22;1855;50.934;6.958;2023-02-12T00:43:03;7.50;99.90
3678;DHT22;1855;50.934;6.958;2023-02-12T00:45:30;7.50;99.90
3678;DHT22;1855;50.934;6.958;2023-02-12T00:47:57;7.60;99.90
3678;DHT22;1855;50.934;6.958;2023-02-12T00:50:23;7.60;99.90
3678;DHT22;1855;50.934;6.958;2023-02-12T00:52:50;7.50;99.90
3678;DHT22;1855;50.934;6.958;2023-02-12T00:55:18;7.60;99.90
3678;DHT22;1855;50.934;6.958;2023-02-12T00:57:45;7.60;99.90
3678;DHT22;1855;50.934;6.958;2023-02-12T01:00:13;7.60;99.90
3678;DHT22;1855;50.934;6.958;2023-02-12T01:02:40;7.60;99.90
3678;DHT22;1855;50.934;6.958;2023-02-12T01:05:07;7.60;99.90
3678;DHT22;1855;50.934;6.958;2023-02-12T01:07:34;7.60;99.90
3678;DHT22;1855;50.934;6.958;2023-02-12T01:10:00;7.50;99.90
3678;DHT22;1855;50.934;6.958;2023-02-12T01:12:28;7.50;99.90
3678;DHT22;1855;50.934;6.958;2023-02-12T01:14:55;7.60;99.90
3678;DHT22;1855;50.934;6.958;2023-02-12T01:17:22;7.50;99.90
3678;DHT22;1855;50.934;6.958;2023-02-12T01:19:49;7.50;99.90
3678;DHT22;1855;50.934;6.958;2023-02-12T01:22:16;7.50;99.90
3678;DHT22;1855;50.934;6.958;2023-02-12T01:24:42;7.50;99.90
3678;DHT22;1855;50.934;6.958;2023-02-12T01:27:09;7.50;99.90
3678;DHT22;1855;50.934;6.958;2023-02-12T01:29:37;7.50;99.90
3678;DHT22;1855;50.934;6.958;2023-02-12T01:32:04;7.50;99.90
3678;DHT22;1855;50.934;6.958;2023-02-12T01:34:31;7.50;99.90
3678;DHT22;1855;50.934;6.958;2023-02-12T01:36:57;7.60;99.90
3678;DHT22;1855;50.934;6.958;2023-02-12T01:39:24;7.60;99.90
3678;DHT22;1855;50.934;6.958;2023-02-12T01:41:51;7.50;99.90
3678;DHT22;1855;50.934;6.958;2023-02-12T01:44:19;7.50;99.90
3678;DHT22;1855;50.934;6.958;2023-02-12T01:46:49;7.50;99.90
3678;DHT22;1855;50.934;6.958;2023-02-12T01:49:21;7.50;99.90
3678;DHT22;1855;50.934;6.958;2023-02-12T01:51:50;7.50;99.90
3678;DHT22;1855;50.934;6.958;2023-02-12T01:54:19;7.60;99.90
3678;DHT22;1855;50.934;6.958;2023-02-12T01:56:48;7.50;99.90
3678;DHT22;1855;50.934;6.958;2023-02-12T01:59:16;7.50;99.90
3678;DHT22;1855;50.934;6.958;2023-02-12T02:01:44;7.50;99.90
3678;DHT22;1855;50.934;6.958;2023-02-12T02:04:15;7.50;99.90
3678;DHT22;1855;50.934;6.958;2023-02-12T02:06:46;7.50;99.90
3678;DHT22;1855;50.934;6.958;2023-02-12T02:09:15;7.40;99.90
3678;DHT22;1855;50.934;6.958;2023-02-12T02:11:42;7.40;99.90
3678;DHT22;1855;50.934;6.958;2023-02-12T02:14:27;7.30;99.90
3678;DHT22;1855;50.934;6.958;2023-02-12T02:23:28;7.30;99.90
3678;DHT22;1855;50.934;6.958;2023-02-12T02:29:19;7.30;99.90
3678;DHT22;1855;50.934;6.958;2023-02-12T02:31:52;7.30;99.90
3678;DHT22;1855;50.934;6.958;2023-02-12T02:34:28;7.20;99.90
3678;DHT22;1855;50.934;6.958;2023-02-12T02:37:07;7.20;99.90
3678;DHT22;1855;50.934;6.958;2023-02-12T02:39:42;7.20;99.90
3678;DHT22;1855;50.934;6.958;2023-02-12T02:42:16;7.20;99.90
3678;DHT22;1855;50.934;6.958;2023-02-12T02:44:49;7.10;99.90
3678;DHT22;1855;50.934;6.958;2023-02-12T02:47:21;7.10;99.90
3678;DHT22;1855;50.934;6.958;2023-02-12T02:49:52;7.10;99.90
3678;DHT22;1855;50.934;6.958;2023-02-12T02:52:23;7.10;99.90
3678;DHT22;1855;50.934;6.958;2023-02-12T02:54:54;7.10;99.90
3678;DHT22;1855;50.934;6.958;2023-02-12T02:57:27;7.10;99.90
3678;DHT22;1855;50.934;6.958;2023-02-12T02:59:59;7.10;99.90
3678;DHT22;1855;50.934;6.958;2023-02-12T03:02:31;7.10;99.90
3678;DHT22;1855;50.934;6.958;2023-02-12T03:05:02;7.10;99.90
3678;DHT22;1855;50.934;6.958;2023-02-12T03:07:33;7.10;99.90
3678;DHT22;1855;50.934;6.958;2023-02-12T03:10:05;7.10;99.90
3678;DHT22;1855;50.934;6.958;2023-02-12T03:12:37;7.10;99.90
3678;DHT22;1855;50.934;6.958;2023-02-12T03:15:09;7.20;99.90
3678;DHT22;1855;50.934;6.958;2023-02-12T03:17:40;7.20;99.90
3678;DHT22;1855;50.934;6.958;2023-02-12T03:20:13;7.20;99.90
3678;DHT22;1855;50.934;6.958;2023-02-12T03:22:45;7.20;99.90
3678;DHT22;1855;50.934;6.958;2023-02-12T03:25:17;7.20;99.90
3678;DHT22;1855;50.934;6.958;2023-02-12T03:27:49;7.20;99.90
3678;DHT22;1855;50.934;6.958;2023-02-12T03:30:18;7.20;99.90
3678;DHT22;1855;50.934;6.958;2023-02-12T03:32:53;7.20;99.90
3678;DHT22;1855;50.934;6.958;2023-02-12T03:35:25;7.20;99.90
3678;DHT22;1855;50.934;6.958;2023-02-12T03:37:55;7.20;99.90
3678;DHT22;1855;50.934;6.958;2023-02-12T03:40:28;7.20;99.90
3678;DHT22;1855;50.934;6.958;2023-02-12T03:43:00;7.20;99.90
3678;DHT22;1855;50.934;6.958;2023-02-12T03:45:37;7.20;99.90
3678;DHT22;1855;50.934;6.958;2023-02-12T03:48:12;7.20;99.90
3678;DHT22;1855;50.934;6.958;2023-02-12T03:50:46;7.20;99.90
3678;DHT22;1855;50.934;6.958;2023-02-12T03:53:15;7.20;99.90
3678;DHT22;1855;50.934;6.958;2023-02-12T03:55:44;7.20;99.90
3678;DHT22;1855;50.934;6.958;2023-02-12T03:58:16;7.20;99.90
3678;DHT22;1855;50.934;6.958;2023-02-12T04:00:45;7.20;99.90
3678;DHT22;1855;50.934;6.958;2023-02-12T04:03:13;7.20;99.90
3678;DHT22;1855;50.934;6.958;2023-02-12T04:05:40;7.20;99.90
3678;DHT22;1855;50.934;6.958;2023-02-12T04:08:08;7.10;99.90
3678;DHT22;1855;50.934;6.958;2023-02-12T04:10:44;7.10;99.90
3678;DHT22;1855;50.934;6.958;2023-02-12T04:13:18;7.10;99.90
3678;DHT22;1855;50.934;6.958;2023-02-12T04:16:03;7.10;99.90
3678;DHT22;1855;50.934;6.958;2023-02-12T04:18:39;7.00;99.90
3678;DHT22;1855;50.934;6.958;2023-02-12T04:21:13;7.10;99.90
3678;DHT22;1855;50.934;6.958;2023-02-12T04:23:47;7.00;99.90
3678;DHT22;1855;50.934;6.958;2023-02-12T04:26:24;7.10;99.90
3678;DHT22;1855;50.934;6.958;2023-02-12T04:29:09;7.00;99.90
3678;DHT22;1855;50.934;6.958;2023-02-12T04:31:39;7.10;99.90
3678;DHT22;1855;50.934;6.958;2023-02-12T04:34:14;7.00;99.90
3678;DHT22;1855;50.934;6.958;2023-02-12T04:36:47;7.00;99.90
3678;DHT22;1855;50.934;6.958;2023-02-12T04:39:19;7.00;99.90
3678;DHT22;1855;50.934;6.958;2023-02-12T04:41:48;7.00;99.90
3678;DHT22;1855;50.934;6.958;2023-02-12T04:44:16;7.00;99.90
3678;DHT22;1855;50.934;6.958;2023-02-12T04:46:43;7.00;99.90
3678;DHT22;1855;50.934;6.958;2023-02-12T04:49:14;7.10;99.90
3678;DHT22;1855;50.934;6.958;2023-02-12T04:51:42;7.10;99.90
3678;DHT22;1855;50.934;6.958;2023-02-12T04:54:09;7.00;99.90
3678;DHT22;1855;50.934;6.958;2023-02-12T04:56:35;7.10;99.90
3678;DHT22;1855;50.934;6.958;2023-02-12T04:59:03;7.00;99.90
3678;DHT22;1855;50.934;6.958;2023-02-12T05:01:30;7.00;99.90
3678;DHT22;1855;50.934;6.958;2023-02-12T05:03:56;7.00;99.90
3678;DHT22;1855;50.934;6.958;2023-02-12T05:06:24;7.00;99.90
3678;DHT22;1855;50.934;6.958;2023-02-12T05:08:51;7.00;99.90
3678;DHT22;1855;50.934;6.958;2023-02-12T05:11:18;7.00;99.90
3678;DHT22;1855;50.934;6.958;2023-02-12T05:13:47;7.00;99.90
3678;DHT22;1855;50.934;6.958;2023-02-12T05:16:14;7.00;99.90
3678;DHT22;1855;50.934;6.958;2023-02-12T05:18:41;7.00;99.90
3678;DHT22;1855;50.934;6.958;2023-02-12T05:21:07;7.00;99.90
3678;DHT22;1855;50.934;6.958;2023-02-12T05:23:37;7.00;99.90
3678;DHT22;1855;50.934;6.958;2023-02-12T05:26:06;7.00;99.90
3678;DHT22;1855;50.934;6.958;2023-02-12T05:28:33;7.00;99.90
3678;DHT22;1855;50.934;6.958;2023-02-12T05:31:00;7.00;99.90
3678;DHT22;1855;50.934;6.958;2023-02-12T05:33:27;7.00;99.90
3678;DHT22;1855;50.934;6.958;2023-02-12T05:35:54;7.00;99.90
3678;DHT22;1855;50.934;6.958;2023-02-12T05:38:21;7.00;99.90
3678;DHT22;1855;50.934;6.958;2023-02-12T05:40:49;7.00;99.90
3678;DHT22;1855;50.934;6.958;2023-02-12T05:43:16;7.00;99.90
3678;DHT22;1855;50.934;6.958;2023-02-12T05:45:42;7.00;99.90
3678;DHT22;1855;50.934;6.958;2023-02-12T05:48:09;7.00;99.90
3678;DHT22;1855;50.934;6.958;2023-02-12T05:50:36;7.00;99.90
3678;DHT22;1855;50.934;6.958;2023-02-12T05:53:03;7.00;99.90
3678;DHT22;1855;50.934;6.958;2023-02-12T05:55:29;7.00;99.90
3678;DHT22;1855;50.934;6.958;2023-02-12T05:57:58;7.00;99.90
3678;DHT22;1855;50.934;6.958;2023-02-12T06:00:24;6.90;99.90
3678;DHT22;1855;50.934;6.958;2023-02-12T06:02:51;7.00;99.90
3678;DHT22;1855;50.934;6.958;2023-02-12T06:05:18;6.90;99.90
3678;DHT22;1855;50.934;6.958;2023-02-12T06:07:45;6.90;99.90
3678;DHT22;1855;50.934;6.958;2023-02-12T06:10:11;6.90;99.90
3678;DHT22;1855;50.934;6.958;2023-02-12T06:12:38;6.90;99.90
3678;DHT22;1855;50.934;6.958;2023-02-12T06:15:07;6.90;99.90
3678;DHT22;1855;50.934;6.958;2023-02-12T06:17:34;6.90;99.90
3678;DHT22;1855;50.934;6.958;2023-02-12T06:20:01;6.90;99.90
3678;DHT22;1855;50.934;6.958;2023-02-12T06:22:27;6.90;99.90
3678;DHT22;1855;50.934;6.958;2023-02-12T06:24:54;6.90;99.90
3678;DHT22;1855;50.934;6.958;2023-02-12T06:27:21;6.90;99.90
3678;DHT22;1855;50.934;6.958;2023-02-12T06:29:48;6.90;99.90
3678;DHT22;1855;50.934;6.958;2023-02-12T06:32:16;6.80;99.90
3678;DHT22;1855;50.934;6.958;2023-02-12T06:34:42;6.80;99.90
3678;DHT22;1855;50.934;6.958;2023-02-12T06:37:11;6.80;99.90
3678;DHT22;1855;50.934;6.958;2023-02-12T06:39:37;6.80;99.90
3678;DHT22;1855;50.934;6.958;2023-02-12T06:42:04;6.80;99.90
3678;DHT22;1855;50.934;6.958;2023-02-12T06:44:31;6.80;99.90
3678;DHT22;1855;50.934;6.958;2023-02-12T06:46:58;6.70;99.90
3678;DHT22;1855;50.934;6.958;2023-02-12T06:49:26;6.70;99.90
3678;DHT22;1855;50.934;6.958;2023-02-12T06:51:53;6.80;99.90
3678;DHT22;1855;50.934;6.958;2023-02-12T06:54:19;6.80;99.90
3678;DHT22;1855;50.934;6.958;2023-02-12T06:56:46;6.80;99.90
3678;DHT22;1855;50.934;6.958;2023-02-12T06:59:14;6.80;99.90
3678;DHT22;1855;50.934;6.958;2023-02-12T07:01:41;6.80;99.90
3678;DHT22;1855;50.934;6.958;2023-02-12T07:04:08;6.80;99.90
3678;DHT22;1855;50.934;6.958;2023-02-12T07:06:37;6.90;99.90
3678;DHT22;1855;50.934;6.958;2023-02-12T07:09:05;6.90;99.90
3678;DHT22;1855;50.934;6.958;2023-02-12T07:11:34;6.90;99.90
3678;DHT22;1855;50.934;6.958;2023-02-12T07:14:01;6.90;99.90
3678;DHT22;1855;50.934;6.958;2023-02-12T07:16:28;6.90;99.90
3678;DHT22;1855;50.934;6.958;2023-02-12T07:18:54;6.90;99.90
3678;DHT22;1855;50.934;6.958;2023-02-12T07:21:21;7.00;99.90
3678;DHT22;1855;50.934;6.958;2023-02-12T07:23:50;7.00;99.90
3678;DHT22;1855;50.934;6.958;2023-02-12T07:26:18;7.00;99.90
3678;DHT22;1855;50.934;6.958;2023-02-12T07:28:45;7.10;99.90
3678;DHT22;1855;50.934;6.958;2023-02-12T07:31:15;7.10;99.90
3678;DHT22;1855;50.934;6.958;2023-02-12T07:33:42;7.10;99.90
3678;DHT22;1855;50.934;6.958;2023-02-12T07:36:11;7.10;99.90
3678;DHT22;1855;50.934;6.958;2023-02-12T07:38:38;7.10;99.90
3678;DHT22;1855;50.934;6.958;2023-02-12T07:41:08;7.10;99.90
3678;DHT22;1855;50.934;6.958;2023-02-12T07:43:36;7.10;99.90
3678;DHT22;1855;50.934;6.958;2023-02-12T07:46:11;7.20;99.90
3678;DHT22;1855;50.934;6.958;2023-02-12T07:48:39;7.20;99.90
3678;DHT22;1855;50.934;6.958;2023-02-12T07:51:07;7.10;99.90
3678;DHT22;1855;50.934;6.958;2023-02-12T07:53:34;7.10;99.90
3678;DHT22;1855;50.934;6.958;2023-02-12T07:56:11;7.20;99.90
3678;DHT22;1855;50.934;6.958;2023-02-12T07:58:40;7.20;99.90
3678;DHT22;1855;50.934;6.958;2023-02-12T08:01:11;7.10;99.90
3678;DHT22;1855;50.934;6.958;2023-02-12T08:03:38;7.20;99.90
3678;DHT22;1855;50.934;6.958;2023-02-12T08:06:09;7.20;99.90
3678;DHT22;1855;50.934;6.958;2023-02-12T08:08:36;7.20;99.90
3678;DHT22;1855;50.934;6.958;2023-02-12T08:11:04;7.30;99.90
3678;DHT22;1855;50.934;6.958;2023-02-12T08:13:33;7.40;99.90
3678;DHT22;1855;50.934;6.958;2023-02-12T08:16:00;7.50;99.90
3678;DHT22;1855;50.934;6.958;2023-02-12T08:18:27;7.50;99.90
3678;DHT22;1855;50.934;6.958;2023-02-12T08:21:00;7.50;99.90
3678;DHT22;1855;50.934;6.958;2023-02-12T08:23:27;7.50;99.90
3678;DHT22;1855;50.934;6.958;2023-02-12T08:25:54;7.60;99.90
3678;DHT22;1855;50.934;6.958;2023-02-12T08:28:20;7.50;99.90
3678;DHT22;1855;50.934;6.958;2023-02-12T08:30:49;7.50;99.90
3678;DHT22;1855;50.934;6.958;2023-02-12T08:33:15;7.60;99.90
3678;DHT22;1855;50.934;6.958;2023-02-12T08:35:42;7.60;99.90
3678;DHT22;1855;50.934;6.958;2023-02-12T08:38:09;7.70;99.90
3678;DHT22;1855;50.934;6.958;2023-02-12T08:40:36;7.60;99.90
3678;DHT22;1855;50.934;6.958;2023-02-12T08:43:02;7.70;99.90
3678;DHT22;1855;50.934;6.958;2023-02-12T08:45:31;7.70;99.90
3678;DHT22;1855;50.934;6.958;2023-02-12T08:47:59;7.70;99.90
3678;DHT22;1855;50.934;6.958;2023-02-12T08:50:26;7.70;99.90
3678;DHT22;1855;50.934;6.958;2023-02-12T08:52:53;7.80;99.90
3678;DHT22;1855;50.934;6.958;2023-02-12T08:55:20;7.80;99.90
3678;DHT22;1855;50.934;6.958;2023-02-12T08:57:46;7.90;99.90
3678;DHT22;1855;50.934;6.958;2023-02-12T09:00:14;8.00;99.90
3678;DHT22;1855;50.934;6.958;2023-02-12T09:02:40;8.00;99.90
3678;DHT22;1855;50.934;6.958;2023-02-12T09:05:08;8.00;99.90
3678;DHT22;1855;50.934;6.958;2023-02-12T09:07:35;8.10;99.90
3678;DHT22;1855;50.934;6.958;2023-02-12T09:10:02;8.10;99.90
3678;DHT22;1855;50.934;6.958;2023-02-12T09:12:29;8.10;99.90
3678;DHT22;1855;50.934;6.958;2023-02-12T09:14:57;8.10;99.90
3678;DHT22;1855;50.934;6.958;2023-02-12T09:17:24;8.10;99.90
3678;DHT22;1855;50.934;6.958;2023-02-12T09:19:52;8.20;99.90
3678;DHT22;1855;50.934;6.958;2023-02-12T09:22:20;8.30;99.90
3678;DHT22;1855;50.934;6.958;2023-02-12T09:24:46;8.30;99.90
3678;DHT22;1855;50.934;6.958;2023-02-12T09:27:13;8.40;99.90
3678;DHT22;1855;50.934;6.958;2023-02-12T09:29:40;8.50;99.90
3678;DHT22;1855;50.934;6.958;2023-02-12T09:32:07;8.60;99.90
3678;DHT22;1855;50.934;6.958;2023-02-12T09:34:34;8.70;99.90
3678;DHT22;1855;50.934;6.958;2023-02-12T09:37:01;8.80;99.90
3678;DHT22;1855;50.934;6.958;2023-02-12T09:39:29;8.80;99.90
3678;DHT22;1855;50.934;6.958;2023-02-12T09:42:17;9.00;99.90
3678;DHT22;1855;50.934;6.958;2023-02-12T09:44:50;9.10;99.90
3678;DHT22;1855;50.934;6.958;2023-02-12T09:47:27;9.20;99.90
3678;DHT22;1855;50.934;6.958;2023-02-12T09:50:08;9.30;99.90
3678;DHT22;1855;50.934;6.958;2023-02-12T09:52:38;9.30;99.90
3678;DHT22;1855;50.934;6.958;2023-02-12T09:55:11;9.40;99.90
3678;DHT22;1855;50.934;6.958;2023-02-12T09:57:38;9.40;99.90
3678;DHT22;1855;50.934;6.958;2023-02-12T10:00:08;9.50;99.90
3678;DHT22;1855;50.934;6.958;2023-02-12T10:02:36;9.40;99.90
3678;DHT22;1855;50.934;6.958;2023-02-12T10:05:05;9.50;99.90
3678;DHT22;1855;50.934;6.958;2023-02-12T10:07:46;9.60;99.90
3678;DHT22;1855;50.934;6.958;2023-02-12T10:10:34;9.60;99.90
3678;DHT22;1855;50.934;6.958;2023-02-12T10:13:10;9.70;99.90
3678;DHT22;1855;50.934;6.958;2023-02-12T10:15:44;9.70;99.90
3678;DHT22;1855;50.934;6.958;2023-02-12T10:18:29;9.80;99.90
3678;DHT22;1855;50.934;6.958;2023-02-12T10:21:05;9.80;99.90
3678;DHT22;1855;50.934;6.958;2023-02-12T10:24:07;9.90;99.90
3678;DHT22;1855;50.934;6.958;2023-02-12T10:26:41;10.10;99.80
3678;DHT22;1855;50.934;6.958;2023-02-12T10:29:13;10.10;99.50
3678;DHT22;1855;50.934;6.958;2023-02-12T10:31:43;10.30;99.80
3678;DHT22;1855;50.934;6.958;2023-02-12T10:34:15;10.40;98.40
3678;DHT22;1855;50.934;6.958;2023-02-12T10:36:44;10.50;98.30
3678;DHT22;1855;50.934;6.958;2023-02-12T10:39:14;10.60;98.00
3678;DHT22;1855;50.934;6.958;2023-02-12T10:41:48;10.60;97.50
3678;DHT22;1855;50.934;6.958;2023-02-12T10:44:16;10.70;97.50
3678;DHT22;1855;50.934;6.958;2023-02-12T10:46:42;10.70;96.90
3678;DHT22;1855;50.934;6.958;2023-02-12T10:49:10;10.80;97.00
3678;DHT22;1855;50.934;6.958;2023-02-12T10:51:55;10.90;96.60
3678;DHT22;1855;50.934;6.958;2023-02-12T10:54:47;11.00;96.30
3678;DHT22;1855;50.934;6.958;2023-02-12T10:57:18;11.10;95.70
3678;DHT22;1855;50.934;6.958;2023-02-12T10:59:48;11.10;95.50
3678;DHT22;1855;50.934;6.958;2023-02-12T11:02:23;11.20;95.50
3678;DHT22;1855;50.934;6.958;2023-02-12T11:04:51;11.30;95.00
3678;DHT22;1855;50.934;6.958;2023-02-12T11:07:19;11.30;94.80
3678;DHT22;1855;50.934;6.958;2023-02-12T11:09:48;11.40;95.00
3678;DHT22;1855;50.934;6.958;2023-02-12T11:12:32;11.50;94.00
3678;DHT22;1855;50.934;6.958;2023-02-12T11:15:03;11.60;93.80
3678;DHT22;1855;50.934;6.958;2023-02-12T11:17:34;11.70;93.60
3678;DHT22;1855;50.934;6.958;2023-02-12T11:20:18;11.70;93.20
3678;DHT22;1855;50.934;6.958;2023-02-12T11:22:50;11.80;93.00
3678;DHT22;1855;50.934;6.958;2023-02-12T11:25:18;11.80;92.90
3678;DHT22;1855;50.934;6.958;2023-02-12T11:27:58;11.90;92.90
3678;DHT22;1855;50.934;6.958;2023-02-12T11:30:25;11.90;92.20
3678;DHT22;1855;50.934;6.958;2023-02-12T11:32:52;11.90;91.90
3678;DHT22;1855;50.934;6.958;2023-02-12T11:35:20;11.90;91.70
3678;DHT22;1855;50.934;6.958;2023-02-12T11:37:53;11.90;91.90
3678;DHT22;1855;50.934;6.958;2023-02-12T11:40:21;11.90;92.10
3678;DHT22;1855;50.934;6.958;2023-02-12T11:42:52;11.90;92.20
3678;DHT22;1855;50.934;6.958;2023-02-12T11:45:23;12.10;92.20
3678;DHT22;1855;50.934;6.958;2023-02-12T11:47:51;12.10;92.10
3678;DHT22;1855;50.934;6.958;2023-02-12T11:50:24;12.10;91.00
3678;DHT22;1855;50.934;6.958;2023-02-12T11:52:54;12.20;90.50
3678;DHT22;1855;50.934;6.958;2023-02-12T11:55:24;12.30;90.10
3678;DHT22;1855;50.934;6.958;2023-02-12T11:58:01;12.20;90.20
3678;DHT22;1855;50.934;6.958;2023-02-12T12:00:31;12.20;90.00
3678;DHT22;1855;50.934;6.958;2023-02-12T12:03:01;12.30;89.10
3678;DHT22;1855;50.934;6.958;2023-02-12T12:05:34;12.30;88.20
3678;DHT22;1855;50.934;6.958;2023-02-12T12:08:04;12.40;88.40
3678;DHT22;1855;50.934;6.958;2023-02-12T12:10:35;12.40;88.70
3678;DHT22;1855;50.934;6.958;2023-02-12T12:13:11;12.50;88.50
3678;DHT22;1855;50.934;6.958;2023-02-12T12:15:42;12.60;87.50
3678;DHT22;1855;50.934;6.958;2023-02-12T12:18:32;12.70;86.40
3678;DHT22;1855;50.934;6.958;2023-02-12T12:21:23;12.70;86.00
3678;DHT22;1855;50.934;6.958;2023-02-12T12:23:53;12.90;84.50
3678;DHT22;1855;50.934;6.958;2023-02-12T12:26:24;13.00;85.00
3678;DHT22;1855;50.934;6.958;2023-02-12T12:28:59;13.10;83.90
3678;DHT22;1855;50.934;6.958;2023-02-12T12:31:32;13.10;83.70
3678;DHT22;1855;50.934;6.958;2023-02-12T12:34:04;13.20;82.90
3678;DHT22;1855;50.934;6.958;2023-02-12T12:37:10;13.20;81.60
3678;DHT22;1855;50.934;6.958;2023-02-12T12:39:51;13.20;81.80
3678;DHT22;1855;50.934;6.958;2023-02-12T12:43:00;13.20;81.30
3678;DHT22;1855;50.934;6.958;2023-02-12T12:51:29;13.30;79.80
3678;DHT22;1855;50.934;6.958;2023-02-12T12:54:10;13.40;79.90
3678;DHT22;1855;50.934;6.958;2023-02-12T12:56:47;13.40;79.70
3678;DHT22;1855;50.934;6.958;2023-02-12T12:59:39;13.40;79.40
3678;DHT22;1855;50.934;6.958;2023-02-12T13:05:38;13.60;78.60
3678;DHT22;1855;50.934;6.958;2023-02-12T13:08:13;13.70;78.30
3678;DHT22;1855;50.934;6.958;2023-02-12T13:10:48;13.80;76.40
3678;DHT22;1855;50.934;6.958;2023-02-12T13:13:25;13.80;76.10
3678;DHT22;1855;50.934;6.958;2023-02-12T13:16:01;13.70;76.80
3678;DHT22;1855;50.934;6.958;2023-02-12T13:18:46;13.60;77.60
3678;DHT22;1855;50.934;6.958;2023-02-12T13:21:25;13.60;77.40
3678;DHT22;1855;50.934;6.958;2023-02-12T13:23:57;13.60;77.50
3678;DHT22;1855;50.934;6.958;2023-02-12T13:26:30;13.70;77.50
3678;DHT22;1855;50.934;6.958;2023-02-12T13:29:03;13.80;77.40
3678;DHT22;1855;50.934;6.958;2023-02-12T13:31:42;13.80;77.00
3678;DHT22;1855;50.934;6.958;2023-02-12T13:34:13;14.00;76.80
3678;DHT22;1855;50.934;6.958;2023-02-12T13:36:42;13.80;76.00
3678;DHT22;1855;50.934;6.958;2023-02-12T13:39:15;13.70;76.80
3678;DHT22;1855;50.934;6.958;2023-02-12T13:41:51;13.80;76.60
3678;DHT22;1855;50.934;6.958;2023-02-12T13:44:23;13.80;77.20
3678;DHT22;1855;50.934;6.958;2023-02-12T13:47:00;13.70;77.90
3678;DHT22;1855;50.934;6.958;2023-02-12T13:49:40;13.40;78.80
3678;DHT22;1855;50.934;6.958;2023-02-12T13:52:16;13.40;79.70
3678;DHT22;1855;50.934;6.958;2023-02-12T13:54:52;13.40;79.90
3678;DHT22;1855;50.934;6.958;2023-02-12T13:57:21;13.30;80.40
3678;DHT22;1855;50.934;6.958;2023-02-12T13:59:50;13.20;81.20
3678;DHT22;1855;50.934;6.958;2023-02-12T14:05:20;13.10;81.60
3678;DHT22;1855;50.934;6.958;2023-02-12T14:07:51;13.00;82.70
3678;DHT22;1855;50.934;6.958;2023-02-12T14:10:24;12.90;83.10
3678;DHT22;1855;50.934;6.958;2023-02-12T14:12:54;12.60;84.10
3678;DHT22;1855;50.934;6.958;2023-02-12T14:15:29;12.40;85.20
3678;DHT22;1855;50.934;6.958;2023-02-12T14:18:26;12.30;86.60
3678;DHT22;1855;50.934;6.958;2023-02-12T14:27:26;12.20;87.70
3678;DHT22;1855;50.934;6.958;2023-02-12T14:32:57;12.00;89.60
3678;DHT22;1855;50.934;6.958;2023-02-12T14:35:30;12.00;90.10
3678;DHT22;1855;50.934;6.958;2023-02-12T14:37:58;11.90;90.30
3678;DHT22;1855;50.934;6.958;2023-02-12T14:40:42;11.90;90.30
3678;DHT22;1855;50.934;6.958;2023-02-12T14:43:31;11.90;90.60
3678;DHT22;1855;50.934;6.958;2023-02-12T14:46:42;11.90;90.60
3678;DHT22;1855;50.934;6.958;2023-02-12T14:49:19;11.90;90.70
3678;DHT22;1855;50.934;6.958;2023-02-12T14:51:53;11.90;90.50
3678;DHT22;1855;50.934;6.958;2023-02-12T14:54:28;11.80;90.40
3678;DHT22;1855;50.934;6.958;2023-02-12T14:56:58;11.80;90.60
3678;DHT22;1855;50.934;6.958;2023-02-12T14:59:31;11.80;90.60
3678;DHT22;1855;50.934;6.958;2023-02-12T15:02:00;11.80;90.60
3678;DHT22;1855;50.934;6.958;2023-02-12T15:04:31;11.80;89.50
3678;DHT22;1855;50.934;6.958;2023-02-12T15:07:03;11.70;90.00
3678;DHT22;1855;50.934;6.958;2023-02-12T15:09:36;11.70;90.20
3678;DHT22;1855;50.934;6.958;2023-02-12T15:12:06;11.60;90.50
3678;DHT22;1855;50.934;6.958;2023-02-12T15:14:40;11.60;90.70
3678;DHT22;1855;50.934;6.958;2023-02-12T15:17:12;11.50;90.80
3678;DHT22;1855;50.934;6.958;2023-02-12T15:19:45;11.60;91.00
3678;DHT22;1855;50.934;6.958;2023-02-12T15:22:21;11.50;91.00
3678;DHT22;1855;50.934;6.958;2023-02-12T15:24:48;11.40;91.40
3678;DHT22;1855;50.934;6.958;2023-02-12T15:27:16;11.40;92.10
3678;DHT22;1855;50.934;6.958;2023-02-12T15:29:48;11.40;92.10
3678;DHT22;1855;50.934;6.958;2023-02-12T15:32:21;11.40;92.10
3678;DHT22;1855;50.934;6.958;2023-02-12T15:34:49;11.30;92.20
3678;DHT22;1855;50.934;6.958;2023-02-12T15:37:21;11.30;92.50
3678;DHT22;1855;50.934;6.958;2023-02-12T15:39:48;11.20;92.40
3678;DHT22;1855;50.934;6.958;2023-02-12T15:42:26;11.10;92.10
3678;DHT22;1855;50.934;6.958;2023-02-12T15:45:18;11.00;92.70
3678;DHT22;1855;50.934;6.958;2023-02-12T15:47:55;11.00;92.70
3678;DHT22;1855;50.934;6.958;2023-02-12T15:50:22;10.90;93.00
3678;DHT22;1855;50.934;6.958;2023-02-12T15:52:50;10.90;92.40
3678;DHT22;1855;50.934;6.958;2023-02-12T15:55:19;10.90;92.40
3678;DHT22;1855;50.934;6.958;2023-02-12T15:57:48;10.80;93.00
3678;DHT22;1855;50.934;6.958;2023-02-12T16:00:28;10.70;93.50
3678;DHT22;1855;50.934;6.958;2023-02-12T16:02:56;10.70;94.00
3678;DHT22;1855;50.934;6.958;2023-02-12T16:05:23;10.60;93.90
3678;DHT22;1855;50.934;6.958;2023-02-12T16:07:51;10.60;94.20
3678;DHT22;1855;50.934;6.958;2023-02-12T16:10:19;10.50;94.30
3678;DHT22;1855;50.934;6.958;2023-02-12T16:12:47;10.50;94.70
3678;DHT22;1855;50.934;6.958;2023-02-12T16:15:27;10.50;94.80
3678;DHT22;1855;50.934;6.958;2023-02-12T16:17:55;10.40;95.00
3678;DHT22;1855;50.934;6.958;2023-02-12T16:20:27;10.40;95.00
3678;DHT22;1855;50.934;6.958;2023-02-12T16:22:54;10.40;95.30
3678;DHT22;1855;50.934;6.958;2023-02-12T16:25:23;10.40;95.30
3678;DHT22;1855;50.934;6.958;2023-02-12T16:27:56;10.40;95.70
3678;DHT22;1855;50.934;6.958;2023-02-12T16:30:30;10.30;95.80
3678;DHT22;1855;50.934;6.958;2023-02-12T16:32:58;10.30;95.70
3678;DHT22;1855;50.934;6.958;2023-02-12T16:35:27;10.30;95.90
3678;DHT22;1855;50.934;6.958;2023-02-12T16:37:59;10.20;96.20
3678;DHT22;1855;50.934;6.958;2023-02-12T16:40:30;10.20;96.50
3678;DHT22;1855;50.934;6.958;2023-02-12T16:42:59;10.20;96.30
3678;DHT22;1855;50.934;6.958;2023-02-12T16:45:44;10.20;96.40
3678;DHT22;1855;50.934;6.958;2023-02-12T16:48:20;10.20;96.40
3678;DHT22;1855;50.934;6.958;2023-02-12T16:50:52;10.20;96.30
3678;DHT22;1855;50.934;6.958;2023-02-12T16:53:32;10.10;96.50
3678;DHT22;1855;50.934;6.958;2023-02-12T16:55:59;10.10;96.60
3678;DHT22;1855;50.934;6.958;2023-02-12T16:58:27;10.10;96.60
3678;DHT22;1855;50.934;6.958;2023-02-12T17:00:56;10.10;96.30
3678;DHT22;1855;50.934;6.958;2023-02-12T17:03:23;10.10;96.70
3678;DHT22;1855;50.934;6.958;2023-02-12T17:05:51;10.00;96.80
3678;DHT22;1855;50.934;6.958;2023-02-12T17:08:20;10.10;96.60